Time;durP1;ratioP1;P1;durP2;ratioP2;P2;SDS_P1;SDS_P2;PMS_P1;PMS_P2;Temp;Humidity;BMP_temperature;BMP_pressure;BME280_temperature;BME280_humidity;BME280_pressure;Samples;Min_cycle;Max_cycle;Signal;HPM_P1;HPM_P2
2021/12/22 00:00:55;;;;;;;20.45;12.38;;;;;;;-1.68;71.69;97438.66;5022011;28;20251;-83
2021/12/22 00:03:23;;;;;;;20.23;12.77;;;;;;;-1.73;69.59;97441.47;5022144;28;20057;-82
2021/12/22 00:05:52;;;;;;;18.83;11.77;;;;;;;-1.84;69.09;97446.31;5020832;28;20089;-83
2021/12/22 00:08:22;;;;;;;23.33;12.48;;;;;;;-1.86;71.12;97440.47;5021139;28;20057;-82
2021/12/22 00:10:50;;;;;;;21.42;13.75;;;;;;;-1.78;72.16;97448.56;5021596;28;20550;-82
2021/12/22 00:13:18;;;;;;;17.95;11.70;;;;;;;-1.83;69.82;97455.66;5021600;28;20049;-82
2021/12/22 00:15:45;;;;;;;18.23;11.48;;;;;;;-1.93;69.18;97462.19;5020923;28;20104;-83
2021/12/22 00:18:13;;;;;;;15.52;11.10;;;;;;;-2.09;68.26;97457.88;5020647;28;20061;-87
2021/12/22 00:20:40;;;;;;;17.77;11.05;;;;;;;-2.22;68.22;97444.13;5020931;28;20058;-85
2021/12/22 00:23:08;;;;;;;17.60;11.75;;;;;;;-2.27;68.84;97438.44;5019957;28;20054;-82
2021/12/22 00:25:37;;;;;;;18.70;11.07;;;;;;;-2.31;69.31;97434.38;5020338;28;20057;-82
2021/12/22 00:28:05;;;;;;;16.80;11.13;;;;;;;-2.25;69.62;97435.78;5020186;28;20050;-84
2021/12/22 00:30:33;;;;;;;18.65;11.82;;;;;;;-2.22;69.57;97425.41;5020357;28;20074;-86
2021/12/22 00:33:04;;;;;;;19.35;12.07;;;;;;;-2.20;69.93;97431.25;5020620;28;20154;-82
2021/12/22 00:35:40;;;;;;;17.88;12.10;;;;;;;-2.13;71.38;97430.03;5019645;28;20050;-82
2021/12/22 00:38:08;;;;;;;24.52;13.77;;;;;;;-2.10;70.09;97423.03;5019509;28;20073;-85
2021/12/22 00:40:37;;;;;;;24.35;12.93;;;;;;;-2.12;70.35;97427.38;5019613;28;20057;-82
2021/12/22 00:43:06;;;;;;;23.15;12.70;;;;;;;-2.12;70.57;97418.88;5019498;28;20050;-82
2021/12/22 00:45:35;;;;;;;24.55;13.95;;;;;;;-2.09;70.70;97421.28;5019527;28;20054;-83
2021/12/22 00:48:04;;;;;;;24.75;13.80;;;;;;;-2.10;70.44;97425.59;5019061;28;20101;-82
2021/12/22 00:50:32;;;;;;;19.30;11.55;;;;;;;-2.11;70.41;97421.34;5019502;28;20431;-84
2021/12/22 00:53:00;;;;;;;21.05;11.70;;;;;;;-2.12;69.81;97436.78;5018876;28;20126;-81
2021/12/22 00:55:28;;;;;;;18.00;11.50;;;;;;;-2.17;69.71;97429.34;5018908;28;20072;-86
2021/12/22 00:57:57;;;;;;;19.55;12.50;;;;;;;-2.14;71.08;97428.38;5020877;28;20057;-83
2021/12/22 01:00:26;;;;;;;19.70;11.07;;;;;;;-2.09;69.90;97432.31;5021378;28;20049;-81
2021/12/22 01:02:54;;;;;;;20.60;11.68;;;;;;;-2.12;69.43;97437.63;5020268;28;20455;-80
2021/12/22 01:05:22;;;;;;;18.52;12.65;;;;;;;-2.13;69.94;97445.34;5021114;28;20133;-82
2021/12/22 01:07:50;;;;;;;17.00;11.73;;;;;;;-2.18;69.50;97448.16;5020288;28;20404;-83
2021/12/22 01:10:21;;;;;;;16.75;11.45;;;;;;;-2.28;68.42;97447.00;5020176;28;20069;-83
2021/12/22 01:12:48;;;;;;;17.55;11.65;;;;;;;-2.38;68.56;97445.84;5020059;28;20500;-81
2021/12/22 01:15:17;;;;;;;19.40;11.20;;;;;;;-2.43;68.87;97440.94;5020198;28;20073;-79
2021/12/22 01:17:48;;;;;;;19.23;11.18;;;;;;;-2.44;68.82;97446.16;5018265;28;20046;-82
2021/12/22 01:20:23;;;;;;;16.23;10.40;;;;;;;-2.44;69.45;97438.50;5018610;28;20049;-81
2021/12/22 01:22:52;;;;;;;17.63;11.13;;;;;;;-2.44;69.70;97441.88;5017148;28;20042;-81
2021/12/22 01:25:22;;;;;;;19.63;12.27;;;;;;;-2.43;70.25;97442.69;5016604;28;20053;-81
2021/12/22 01:27:51;;;;;;;17.65;10.98;;;;;;;-2.37;69.97;97437.25;5016960;28;20053;-81
2021/12/22 01:30:22;;;;;;;20.60;13.43;;;;;;;-2.39;70.64;97439.06;5016840;28;20042;-80
2021/12/22 01:32:55;;;;;;;18.77;11.93;;;;;;;-2.39;69.40;97441.63;5018490;28;20326;-81
2021/12/22 01:35:24;;;;;;;18.00;11.02;;;;;;;-2.40;70.16;97442.53;5018506;28;20050;-78
2021/12/22 01:37:53;;;;;;;16.67;12.23;;;;;;;-2.38;70.65;97451.78;5016888;28;20060;-82
2021/12/22 01:40:21;;;;;;;21.30;12.93;;;;;;;-2.35;70.47;97450.78;5016737;28;20053;-82
2021/12/22 01:42:51;;;;;;;23.20;13.90;;;;;;;-2.29;71.78;97458.13;5017045;28;20053;-81
2021/12/22 01:45:48;;;;;;;19.67;12.43;;;;;;;-2.26;71.29;97455.41;5017240;28;20100;-82
2021/12/22 01:51:06;;;;;;;22.10;12.73;;;;;;;-2.27;72.07;97458.88;5016988;28;20045;-83
2021/12/22 01:53:36;;;;;;;;;;;;;;;-2.19;72.75;97455.91;5017916;28;20050;-83
2021/12/22 01:56:15;;;;;;;21.92;11.80;;;;;;;-2.17;71.67;97464.31;5016677;28;19945;-81
2021/12/22 01:58:45;;;;;;;21.75;13.13;;;;;;;-2.18;71.84;97462.69;5016595;28;20061;-84
2021/12/22 02:01:15;;;;;;;18.38;12.63;;;;;;;-2.19;70.82;97472.06;5016752;28;20057;-89
2021/12/22 02:03:45;;;;;;;24.55;13.02;;;;;;;-2.24;71.11;97471.47;5016766;28;20050;-81
2021/12/22 02:06:13;;;;;;;22.17;13.45;;;;;;;-2.29;69.75;97470.91;5017793;28;20053;-81
2021/12/22 02:08:43;;;;;;;20.98;12.52;;;;;;;-2.39;69.41;97468.00;5018886;28;20065;-83
2021/12/22 02:11:12;;;;;;;18.45;11.65;;;;;;;-2.40;69.90;97470.66;5018903;28;20053;-81
2021/12/22 02:13:43;;;;;;;23.30;13.02;;;;;;;-2.40;70.44;97463.00;5018024;28;20053;-80
2021/12/22 02:16:14;;;;;;;21.98;13.05;;;;;;;-2.46;69.15;97463.31;5017956;28;20049;-82
2021/12/22 02:18:46;;;;;;;19.92;13.10;;;;;;;-2.51;70.81;97455.88;5019105;28;20045;-80
2021/12/22 02:21:17;;;;;;;18.08;11.80;;;;;;;-2.47;70.20;97462.47;5018377;28;20060;-79
2021/12/22 02:23:45;;;;;;;21.90;13.25;;;;;;;-2.47;70.26;97451.41;5018051;28;20065;-79
2021/12/22 02:26:16;;;;;;;21.85;13.85;;;;;;;-2.44;71.78;97452.09;5018473;28;20057;-80
2021/12/22 02:28:47;;;;;;;21.75;13.20;;;;;;;-2.41;71.17;97451.91;5018558;28;20054;-80
2021/12/22 02:31:18;;;;;;;26.15;12.73;;;;;;;-2.43;69.81;97447.81;5018052;28;20050;-85
2021/12/22 02:33:47;;;;;;;22.80;13.45;;;;;;;-2.51;68.36;97443.09;5017735;28;20053;-83
2021/12/22 02:36:23;;;;;;;26.00;12.63;;;;;;;-2.64;67.55;97437.81;5018665;28;20049;-81
2021/12/22 02:38:53;;;;;;;24.48;13.32;;;;;;;-2.78;67.14;97437.69;5018551;28;20057;-79
2021/12/22 02:41:24;;;;;;;20.52;12.18;;;;;;;-2.94;67.27;97428.25;5018895;28;20428;-81
2021/12/22 02:43:54;;;;;;;19.98;12.98;;;;;;;-3.00;68.30;97437.94;5018458;28;20056;-79
2021/12/22 02:46:24;;;;;;;21.92;12.70;;;;;;;-3.01;68.96;97437.13;5018547;28;20053;-80
2021/12/22 02:48:52;;;;;;;19.58;12.55;;;;;;;-3.01;68.60;97437.13;5017352;28;20053;-82
2021/12/22 02:51:22;;;;;;;22.42;13.63;;;;;;;-3.00;68.70;97432.84;5016579;28;20072;-82
2021/12/22 02:54:02;;;;;;;17.63;11.77;;;;;;;-2.98;68.80;97431.84;5017738;28;20689;-84
2021/12/22 02:56:37;;;;;;;21.70;13.02;;;;;;;-2.93;68.96;97439.28;5017192;28;20076;-82
2021/12/22 02:59:32;;;;;;;22.15;15.20;;;;;;;-2.82;70.49;97437.03;5017477;28;20049;-85
2021/12/22 03:02:14;;;;;;;23.58;13.57;;;;;;;-2.72;69.81;97443.28;5017597;28;20057;-87
2021/12/22 03:04:51;;;;;;;23.45;13.70;;;;;;;-2.76;69.34;97449.47;5017531;28;20045;-83
2021/12/22 03:07:23;;;;;;;22.08;12.70;;;;;;;-2.74;69.74;97457.03;5016847;28;20523;-81
2021/12/22 03:09:57;;;;;;;20.23;12.30;;;;;;;-2.73;69.13;97456.16;5017495;28;20069;-80
2021/12/22 03:12:25;;;;;;;26.73;13.93;;;;;;;-2.73;69.42;97453.59;5017792;28;20054;-82
2021/12/22 03:14:52;;;;;;;21.42;12.57;;;;;;;-2.74;69.77;97459.59;5018370;28;20046;-82
2021/12/22 03:17:20;;;;;;;20.90;13.07;;;;;;;-2.72;69.63;97468.00;5018706;28;20483;-80
2021/12/22 03:19:47;;;;;;;21.20;13.57;;;;;;;-2.78;68.85;97469.13;5018464;28;20057;-81
2021/12/22 03:22:18;;;;;;;21.23;12.88;;;;;;;-2.83;69.01;97460.88;5018253;28;20419;-82
2021/12/22 03:24:50;;;;;;;22.13;12.70;;;;;;;-2.84;69.59;97464.34;5019192;28;20053;-82
2021/12/22 03:27:18;;;;;;;22.50;12.77;;;;;;;-2.76;70.93;97452.00;5021546;28;20057;-80
2021/12/22 03:29:46;;;;;;;22.80;13.27;;;;;;;-2.68;70.88;97458.47;5021191;28;20049;-82
2021/12/22 03:32:14;;;;;;;20.25;11.90;;;;;;;-2.66;70.54;97461.78;5021324;28;20521;-81
2021/12/22 03:34:42;;;;;;;21.63;13.02;;;;;;;-2.71;69.89;97447.50;5021242;28;20053;-81
2021/12/22 03:37:10;;;;;;;23.35;12.85;;;;;;;-2.68;70.13;97449.06;5020968;28;20054;-82
2021/12/22 03:39:38;;;;;;;22.50;12.90;;;;;;;-2.61;71.00;97441.94;5021145;28;20062;-82
2021/12/22 03:42:09;;;;;;;18.52;11.80;;;;;;;-2.56;69.99;97443.34;5021040;28;20075;-79
2021/12/22 03:44:36;;;;;;;25.38;14.77;;;;;;;-2.52;70.77;97449.91;5020415;28;20050;-83
2021/12/22 03:47:05;;;;;;;25.52;14.20;;;;;;;-2.49;70.30;97447.22;5027187;28;20042;-85
2021/12/22 03:49:33;;;;;;;22.63;13.90;;;;;;;-2.51;69.40;97440.56;5026882;28;20062;-83
2021/12/22 03:52:01;;;;;;;24.70;14.07;;;;;;;-2.54;70.60;97441.50;5026430;28;20046;-86
2021/12/22 03:54:29;;;;;;;23.35;14.07;;;;;;;-2.52;71.25;97439.69;5022748;28;20058;-84
2021/12/22 03:56:57;;;;;;;22.25;13.60;;;;;;;-2.56;69.34;97438.25;5021901;28;20423;-80
2021/12/22 03:59:26;;;;;;;23.80;12.63;;;;;;;-2.73;67.82;97440.84;5022384;28;20046;-83
2021/12/22 04:01:54;;;;;;;20.42;11.63;;;;;;;-2.87;69.25;97448.34;5021986;28;20049;-82
2021/12/22 04:04:22;;;;;;;22.00;12.65;;;;;;;-2.91;70.24;97448.53;5021684;28;20116;-81
2021/12/22 04:06:51;;;;;;;21.42;12.77;;;;;;;-2.87;70.99;97448.34;5021173;28;20431;-82
2021/12/22 04:09:26;;;;;;;23.25;13.10;;;;;;;-2.82;70.78;97452.34;5021622;28;20050;-82
2021/12/22 04:11:54;;;;;;;20.13;12.60;;;;;;;-2.78;71.12;97456.38;5021379;28;20054;-81
2021/12/22 04:14:22;;;;;;;20.45;12.50;;;;;;;-2.72;71.31;97455.25;5021003;28;20046;-82
2021/12/22 04:16:51;;;;;;;18.73;12.05;;;;;;;-2.76;69.33;97466.50;5020822;28;20054;-80
2021/12/22 04:19:18;;;;;;;16.73;11.57;;;;;;;-2.88;68.75;97460.31;5020343;28;20049;-81
2021/12/22 04:21:48;;;;;;;23.05;12.68;;;;;;;-2.91;70.22;97463.84;5021428;28;20058;-81
2021/12/22 04:24:16;;;;;;;21.08;12.48;;;;;;;-2.84;71.01;97466.91;5021851;28;20068;-79
2021/12/22 04:26:43;;;;;;;22.70;12.88;;;;;;;-2.81;70.74;97476.16;5021116;28;20050;-81
2021/12/22 04:29:12;;;;;;;17.83;11.35;;;;;;;-2.78;70.83;97476.78;5020891;28;20050;-80
2021/12/22 04:31:40;;;;;;;21.75;12.65;;;;;;;-2.75;71.19;97470.72;5020764;28;20515;-80
2021/12/22 04:34:08;;;;;;;25.52;12.90;;;;;;;-2.72;71.28;97475.66;5021020;28;20061;-80
2021/12/22 04:36:36;;;;;;;24.45;13.00;;;;;;;-2.71;70.00;97475.59;5019470;28;20061;-81
2021/12/22 04:39:05;;;;;;;22.23;12.68;;;;;;;-2.70;70.21;97473.88;5020159;28;20050;-80
2021/12/22 04:41:33;;;;;;;20.92;12.38;;;;;;;-2.76;69.26;97456.28;5019754;28;20642;-81
2021/12/22 04:44:01;;;;;;;23.42;13.43;;;;;;;-2.85;68.55;97461.88;5022085;28;20054;-81
2021/12/22 04:46:29;;;;;;;22.45;13.27;;;;;;;-2.88;69.52;97456.94;5020301;28;20113;-82
2021/12/22 04:48:57;;;;;;;33.38;16.00;;;;;;;-2.85;69.99;97454.22;5019558;28;20558;-83
2021/12/22 04:51:28;;;;;;;27.48;16.73;;;;;;;-2.80;71.18;97457.34;5019738;28;20415;-82
2021/12/22 04:54:03;;;;;;;28.35;16.58;;;;;;;-2.72;70.79;97447.59;5019239;28;20050;-82
2021/12/22 04:56:32;;;;;;;27.13;17.02;;;;;;;-2.68;70.54;97453.38;5018603;28;20124;-83
2021/12/22 04:58:59;;;;;;;40.25;22.10;;;;;;;-2.67;70.69;97453.25;5018841;28;20053;-82
2021/12/22 05:01:27;;;;;;;26.20;16.17;;;;;;;-2.64;71.01;97459.97;5018823;28;20519;-81
2021/12/22 05:03:56;;;;;;;23.77;13.88;;;;;;;-2.65;69.69;97453.19;5018854;28;20054;-81
2021/12/22 05:06:27;;;;;;;24.60;13.27;;;;;;;-2.72;69.27;97462.91;5018228;28;20416;-81
2021/12/22 05:08:54;;;;;;;22.83;13.60;;;;;;;-2.73;69.93;97459.53;5018217;28;20069;-82
2021/12/22 05:11:22;;;;;;;27.73;14.68;;;;;;;-2.77;68.65;97464.88;5018602;28;20049;-81
2021/12/22 05:13:49;;;;;;;24.50;13.77;;;;;;;-2.81;69.02;97468.47;5019218;28;20054;-80
2021/12/22 05:16:19;;;;;;;26.92;14.70;;;;;;;-2.79;69.36;97470.06;5017923;28;20046;-82
2021/12/22 05:18:51;;;;;;;27.00;14.90;;;;;;;-2.80;69.13;97465.00;5017969;28;20054;-81
2021/12/22 05:21:21;;;;;;;30.75;17.10;;;;;;;-2.84;68.48;97468.63;5018865;28;20061;-80
2021/12/22 05:23:51;;;;;;;31.58;18.13;;;;;;;-2.85;68.99;97472.91;5017939;28;20053;-80
2021/12/22 05:26:20;;;;;;;27.60;15.95;;;;;;;-2.84;69.09;97466.06;5018126;28;20053;-83
2021/12/22 05:28:47;;;;;;;27.13;16.70;;;;;;;-2.86;69.39;97476.38;5018075;28;20046;-82
2021/12/22 05:31:15;;;;;;;31.38;17.33;;;;;;;-2.85;69.92;97469.53;5020271;28;20057;-81
2021/12/22 05:33:42;;;;;;;34.63;17.52;;;;;;;-2.81;69.93;97466.75;5019677;28;20073;-81
2021/12/22 05:36:10;;;;;;;35.20;18.42;;;;;;;-2.77;70.31;97467.44;5019607;28;20057;-82
2021/12/22 05:38:38;;;;;;;35.15;19.88;;;;;;;-2.75;70.22;97473.28;5019042;28;20500;-82
2021/12/22 05:41:07;;;;;;;35.67;20.60;;;;;;;-2.74;71.06;97470.63;5018874;28;20053;-83
2021/12/22 05:43:35;;;;;;;31.77;17.35;;;;;;;-2.70;70.88;97471.31;5018400;28;20053;-82
2021/12/22 05:46:03;;;;;;;31.38;17.40;;;;;;;-2.66;70.97;97477.09;5017854;28;20057;-80
2021/12/22 05:48:31;;;;;;;32.30;17.63;;;;;;;-2.64;70.82;97460.78;5017070;28;20054;-80
2021/12/22 05:51:00;;;;;;;29.85;17.02;;;;;;;-2.61;70.86;97463.19;5018368;28;20049;-81
2021/12/22 05:53:29;;;;;;;87.38;40.88;;;;;;;-2.58;70.99;97460.47;5018146;28;20054;-84
2021/12/22 05:55:58;;;;;;;42.25;23.50;;;;;;;-2.55;71.32;97455.19;5018039;28;20061;-81
2021/12/22 05:58:28;;;;;;;35.97;19.40;;;;;;;-2.53;71.39;97461.06;5017599;28;20046;-82
2021/12/22 06:00:56;;;;;;;35.03;17.70;;;;;;;-2.56;70.77;97453.56;5018700;28;20050;-82
2021/12/22 06:03:24;;;;;;;31.67;17.58;;;;;;;-2.58;70.79;97444.31;5017160;28;20108;-82
2021/12/22 06:05:52;;;;;;;29.33;16.60;;;;;;;-2.61;71.18;97449.59;5015889;28;20053;-80
2021/12/22 06:08:19;;;;;;;31.58;17.75;;;;;;;-2.62;71.21;97450.50;5020937;28;20049;-80
2021/12/22 06:10:47;;;;;;;30.10;18.08;;;;;;;-2.65;71.05;97451.47;5030665;28;20504;-83
2021/12/22 06:13:15;;;;;;;33.92;18.88;;;;;;;-2.69;71.34;97447.41;5017322;28;20046;-80
2021/12/22 06:15:44;;;;;;;32.17;17.70;;;;;;;-2.73;71.78;97445.94;5018144;28;20049;-83
2021/12/22 06:18:11;;;;;;;32.13;19.63;;;;;;;-2.72;72.13;97447.59;5017612;28;20048;-83
2021/12/22 06:20:39;;;;;;;35.63;19.55;;;;;;;-2.71;72.46;97450.06;5020410;28;20053;-84
2021/12/22 06:23:07;;;;;;;32.35;18.88;;;;;;;-2.70;72.21;97445.78;5019503;28;20045;-84
2021/12/22 06:25:35;;;;;;;34.90;19.02;;;;;;;-2.69;72.23;97452.53;5037658;28;20045;-83
2021/12/22 06:28:03;;;;;;;35.83;19.98;;;;;;;-2.71;72.02;97447.50;5027530;28;20045;-80
2021/12/22 06:30:31;;;;;;;36.13;19.98;;;;;;;-2.73;72.26;97441.66;5013633;28;20515;-78
2021/12/22 06:33:00;;;;;;;33.67;18.95;;;;;;;-2.71;72.43;97441.59;5013804;28;20062;-79
2021/12/22 06:35:28;;;;;;;33.38;18.10;;;;;;;-2.71;72.60;97444.97;5013454;28;20655;-79
2021/12/22 06:37:55;;;;;;;33.67;18.38;;;;;;;-2.69;72.83;97442.31;5013103;28;20056;-79
2021/12/22 06:40:23;;;;;;;33.20;19.40;;;;;;;-2.68;72.84;97445.72;5015776;28;20067;-78
2021/12/22 06:42:51;;;;;;;31.10;17.45;;;;;;;-2.72;72.33;97450.94;5032999;28;20061;-79
2021/12/22 06:45:18;;;;;;;29.85;17.13;;;;;;;-2.76;72.10;97451.19;5025154;28;20056;-80
2021/12/22 06:47:46;;;;;;;32.45;17.52;;;;;;;-2.78;72.11;97453.00;5013010;28;20057;-80
2021/12/22 06:50:15;;;;;;;34.60;18.83;;;;;;;-2.79;72.95;97446.25;5013571;28;20046;-79
2021/12/22 06:52:42;;;;;;;32.35;18.13;;;;;;;-2.76;73.16;97441.78;5035199;22;20065;-74
2021/12/22 06:55:10;;;;;;;29.70;18.15;;;;;;;-2.77;72.34;97431.69;5013830;28;20054;-74
2021/12/22 06:57:37;;;;;;;32.33;17.85;;;;;;;-2.83;72.21;97429.44;5012694;28;20054;-72
2021/12/22 07:00:07;;;;;;;31.70;17.73;;;;;;;-2.87;72.45;97428.75;5011668;28;20054;-73
2021/12/22 07:02:37;;;;;;;32.20;18.08;;;;;;;-2.85;72.83;97431.25;5006242;28;20050;-73
2021/12/22 07:05:08;;;;;;;31.55;17.27;;;;;;;-2.82;72.54;97437.03;5011118;28;20061;-74
2021/12/22 07:07:37;;;;;;;29.40;17.58;;;;;;;-2.84;72.42;97437.97;5008774;28;20072;-74
2021/12/22 07:10:07;;;;;;;33.50;18.25;;;;;;;-2.87;72.34;97453.47;5012424;28;20137;-73
2021/12/22 07:12:35;;;;;;;31.48;17.88;;;;;;;-2.88;72.31;97451.84;5013267;28;20061;-73
2021/12/22 07:15:03;;;;;;;30.38;18.02;;;;;;;-2.93;72.31;97450.34;5021014;28;20052;-74
2021/12/22 07:17:31;;;;;;;32.53;17.50;;;;;;;-2.98;72.43;97459.94;5019902;28;20057;-73
2021/12/22 07:19:58;;;;;;;33.03;18.30;;;;;;;-2.98;72.90;97452.28;5013120;28;20077;-75
2021/12/22 07:22:26;;;;;;;30.83;17.42;;;;;;;-2.96;72.57;97455.56;5012840;28;20057;-73
2021/12/22 07:24:55;;;;;;;28.65;17.27;;;;;;;-2.95;72.79;97461.53;5012848;28;20532;-74
2021/12/22 07:27:23;;;;;;;30.00;16.90;;;;;;;-2.93;72.64;97459.69;5011712;28;20052;-74
2021/12/22 07:29:50;;;;;;;29.92;17.15;;;;;;;-2.95;72.40;97453.88;5012878;28;20054;-74
2021/12/22 07:32:18;;;;;;;28.35;16.13;;;;;;;-3.00;72.57;97456.63;5012928;28;20049;-73
2021/12/22 07:34:51;;;;;;;26.27;15.52;;;;;;;-2.99;72.54;97460.84;5012409;28;20046;-73
2021/12/22 07:37:23;;;;;;;28.90;17.40;;;;;;;-2.99;72.40;97458.28;5011422;28;20520;-74
2021/12/22 07:39:51;;;;;;;30.43;17.97;;;;;;;-2.99;72.48;97462.56;5011760;28;20428;-73
2021/12/22 07:42:21;;;;;;;34.42;18.55;;;;;;;-2.97;72.72;97464.16;5011217;28;20295;-73
2021/12/22 07:44:48;;;;;;;32.22;17.50;;;;;;;-2.96;72.11;97464.97;5011718;28;20415;-73
2021/12/22 07:47:16;;;;;;;28.48;17.02;;;;;;;-2.98;72.42;97464.22;5011684;28;20046;-73
2021/12/22 07:49:43;;;;;;;29.92;17.73;;;;;;;-2.97;72.66;97474.34;5012411;28;20121;-74
2021/12/22 07:52:11;;;;;;;38.08;17.15;;;;;;;-2.92;72.56;97477.50;5012117;28;20431;-73
2021/12/22 07:54:39;;;;;;;31.92;16.42;;;;;;;-2.90;72.33;97475.69;5011920;28;20072;-73
2021/12/22 07:57:07;;;;;;;30.75;16.70;;;;;;;-2.87;72.69;97484.09;5012209;28;20100;-74
2021/12/22 07:59:36;;;;;;;34.17;18.25;;;;;;;-2.83;72.70;97476.22;5012176;28;20042;-73
2021/12/22 08:02:04;;;;;;;34.15;18.25;;;;;;;-2.80;72.66;97473.53;5012497;28;20061;-73
2021/12/22 08:04:36;;;;;;;36.13;17.63;;;;;;;-2.74;72.65;97482.59;5011755;28;20129;-73
2021/12/22 08:07:04;;;;;;;31.02;17.48;;;;;;;-2.69;72.11;97488.28;5010758;28;20058;-75
2021/12/22 08:09:31;;;;;;;32.00;18.67;;;;;;;-2.66;72.98;97484.75;5011572;28;20058;-74
2021/12/22 08:12:04;;;;;;;31.00;17.60;;;;;;;-2.60;72.71;97494.66;5014956;28;20057;-74
2021/12/22 08:14:32;;;;;;;35.22;19.60;;;;;;;-2.55;72.96;97490.16;5016504;28;20045;-74
2021/12/22 08:17:00;;;;;;;39.28;19.20;;;;;;;-2.47;72.93;97490.59;5016051;28;20065;-73
2021/12/22 08:19:28;;;;;;;32.97;17.15;;;;;;;-2.45;71.81;97490.47;5016275;28;20136;-73
2021/12/22 08:21:56;;;;;;;29.63;17.70;;;;;;;-2.45;71.38;97495.59;5016012;28;20578;-74
2021/12/22 08:24:23;;;;;;;33.53;18.05;;;;;;;-2.43;72.26;97488.69;5015948;28;20467;-74
2021/12/22 08:26:52;;;;;;;29.50;17.58;;;;;;;-2.37;72.81;97498.59;5015873;28;20515;-74
2021/12/22 08:29:20;;;;;;;31.70;18.83;;;;;;;-2.32;72.81;97491.50;5015812;28;20503;-74
2021/12/22 08:31:47;;;;;;;28.25;18.45;;;;;;;-2.24;73.28;97494.47;5015889;28;20046;-73
2021/12/22 08:34:23;;;;;;;33.53;17.88;;;;;;;-2.14;74.14;97498.22;5015614;28;20080;-76
2021/12/22 08:39:35;;;;;;;28.75;16.65;;;;;;;-2.02;73.15;97498.47;4987888;28;20050;-78
2021/12/22 08:42:04;;;;;;;33.72;17.40;;;;;;;-1.99;72.93;97493.19;5028999;28;20050;-79
2021/12/22 08:44:33;;;;;;;29.08;18.17;;;;;;;-1.97;72.88;97481.16;5017385;28;20050;-81
2021/12/22 08:47:01;;;;;;;28.27;17.95;;;;;;;-1.96;73.30;97477.69;5016601;28;20112;-78
2021/12/22 08:49:30;;;;;;;31.40;18.92;;;;;;;-1.92;73.69;97485.13;5015560;28;20427;-79
2021/12/22 08:51:58;;;;;;;30.70;19.73;;;;;;;-1.93;73.65;97482.63;5016314;28;20057;-79
2021/12/22 08:54:26;;;;;;;31.38;16.83;;;;;;;-1.95;72.48;97479.34;5016514;28;20053;-79
2021/12/22 08:56:55;;;;;;;27.38;16.40;;;;;;;-1.99;70.61;97486.38;5016524;28;20060;-79
2021/12/22 08:59:24;;;;;;;28.73;15.57;;;;;;;-2.08;70.17;97485.13;5017175;28;20046;-79
2021/12/22 09:01:52;;;;;;;28.33;18.30;;;;;;;-2.09;71.42;97486.00;5018106;28;20057;-79
2021/12/22 09:04:21;;;;;;;27.05;16.13;;;;;;;-2.09;71.10;97470.66;5016563;28;20053;-79
2021/12/22 09:06:51;;;;;;;28.08;16.20;;;;;;;-2.12;70.48;97475.13;5017759;28;20471;-79
2021/12/22 09:09:20;;;;;;;23.52;14.45;;;;;;;-2.09;71.29;97465.56;5021654;28;20141;-81
2021/12/22 09:11:49;;;;;;;23.23;13.70;;;;;;;-2.07;70.99;97475.72;5016871;28;20508;-77
2021/12/22 09:14:18;;;;;;;24.08;13.88;;;;;;;-2.07;71.69;97470.59;5016985;28;20050;-77
2021/12/22 09:16:46;;;;;;;24.15;14.27;;;;;;;-2.02;71.77;97467.78;5015048;28;20054;-78
2021/12/22 09:19:13;;;;;;;23.08;13.77;;;;;;;-1.97;71.64;97476.03;5019603;28;20054;-76
2021/12/22 09:21:41;;;;;;;24.20;14.02;;;;;;;-1.92;71.69;97474.88;5017218;28;20052;-76
2021/12/22 09:24:10;;;;;;;26.50;14.85;;;;;;;-1.85;72.22;97474.56;5015571;28;20423;-78
2021/12/22 09:26:38;;;;;;;24.83;15.70;;;;;;;-1.80;71.93;97475.13;5018298;28;20058;-76
2021/12/22 09:29:07;;;;;;;26.45;15.70;;;;;;;-1.77;71.95;97483.47;5024220;28;20052;-84
2021/12/22 09:31:36;;;;;;;23.15;14.43;;;;;;;-1.76;71.81;97468.94;5017763;28;20072;-80
2021/12/22 09:34:04;;;;;;;21.33;14.02;;;;;;;-1.73;71.46;97476.44;5024460;28;20069;-80
2021/12/22 09:36:32;;;;;;;25.55;14.32;;;;;;;-1.71;71.45;97472.06;5015262;28;20054;-78
2021/12/22 09:39:00;;;;;;;26.42;15.52;;;;;;;-1.68;71.52;97467.63;5014950;28;20058;-79
2021/12/22 09:41:30;;;;;;;24.15;14.50;;;;;;;-1.69;71.12;97471.06;5013968;28;20464;-75
2021/12/22 09:43:59;;;;;;;27.83;16.73;;;;;;;-1.72;71.83;97472.97;5013450;28;20054;-76
2021/12/22 09:46:29;;;;;;;25.17;15.25;;;;;;;-1.72;71.66;97466.13;5013401;28;20137;-76
2021/12/22 09:49:06;;;;;;;27.08;16.20;;;;;;;-1.70;71.87;97464.31;5013774;28;20056;-78
2021/12/22 09:54:20;;;;;;;23.63;15.02;;;;;;;-1.62;71.40;97460.50;5013471;28;20423;-76
2021/12/22 09:56:49;;;;;;;28.33;16.83;;;;;;;-1.60;71.93;97456.94;5013833;28;20054;-76
2021/12/22 09:59:17;;;;;;;25.88;15.80;;;;;;;-1.54;72.63;97448.94;5014686;28;20058;-77
2021/12/22 10:01:45;;;;;;;24.67;15.48;;;;;;;-1.47;72.20;97454.53;5014372;28;20527;-75
2021/12/22 10:04:16;;;;;;;24.77;15.73;;;;;;;-1.41;72.01;97448.25;5013978;28;20077;-78
2021/12/22 10:06:44;;;;;;;25.60;15.45;;;;;;;-1.37;71.64;97449.72;5013748;28;20064;-76
2021/12/22 10:09:11;;;;;;;26.27;16.00;;;;;;;-1.31;72.66;97434.03;5014204;28;20049;-77
2021/12/22 10:11:43;;;;;;;24.92;15.52;;;;;;;-1.23;72.49;97439.53;5013968;28;20073;-77
2021/12/22 10:14:20;;;;;;;26.92;16.42;;;;;;;-1.17;71.42;97433.25;5013989;28;20080;-76
2021/12/22 10:16:51;;;;;;;22.23;13.38;;;;;;;-1.16;70.84;97424.63;5013232;28;20069;-76
2021/12/22 10:19:19;;;;;;;21.58;14.25;;;;;;;-1.16;71.12;97419.50;5013393;28;20061;-78
2021/12/22 10:21:54;;;;;;;26.85;15.43;;;;;;;-1.15;70.34;97413.50;4998732;28;20045;-75
2021/12/22 10:24:34;;;;;;;23.25;14.65;;;;;;;-1.19;70.10;97412.03;5014069;28;20049;-76
2021/12/22 10:27:05;;;;;;;24.30;15.05;;;;;;;-1.17;70.90;97410.19;5014351;28;20215;-76
2021/12/22 10:29:35;;;;;;;24.23;15.27;;;;;;;-1.15;70.51;97413.50;5014828;28;20054;-77
2021/12/22 10:32:12;;;;;;;28.80;16.48;;;;;;;-1.14;71.30;97408.25;5013638;28;20058;-77
2021/12/22 10:34:58;;;;;;;24.67;15.95;;;;;;;-1.08;70.40;97407.09;5013010;28;20057;-76
2021/12/22 10:37:35;;;;;;;29.83;14.95;;;;;;;-1.04;70.33;97398.31;5012440;28;20049;-80
2021/12/22 10:40:21;;;;;;;24.83;14.98;;;;;;;-1.02;70.15;97396.50;5013670;28;20046;-79
2021/12/22 10:42:49;;;;;;;24.67;14.77;;;;;;;-0.98;70.43;97394.59;5014087;28;20053;-80
2021/12/22 10:45:20;;;;;;;24.80;15.43;;;;;;;-0.94;70.22;97402.00;5013764;28;20050;-76
2021/12/22 10:50:35;;;;;;;22.75;13.90;;;;;;;-0.76;70.03;97402.63;5012851;28;20061;-77
2021/12/22 10:53:05;;;;;;;23.80;14.18;;;;;;;-0.70;69.73;97394.59;5012566;28;20060;-77
2021/12/22 10:55:41;;;;;;;25.10;15.35;;;;;;;-0.59;70.17;97403.34;5012445;28;20061;-76
2021/12/22 10:58:17;;;;;;;22.08;13.95;;;;;;;-0.55;69.74;97397.13;5012061;28;20050;-80
2021/12/22 11:01:00;;;;;;;22.08;13.15;;;;;;;-0.46;68.93;97394.84;4993930;28;20444;-80
2021/12/22 11:03:36;;;;;;;22.02;13.75;;;;;;;-0.39;69.64;97386.75;4997402;28;20046;-81
2021/12/22 11:06:11;;;;;;;18.98;12.45;;;;;;;-0.33;68.84;97381.25;5016907;28;20435;-86
2021/12/22 11:08:39;;;;;;;20.15;13.88;;;;;;;-0.28;69.06;97372.38;5016472;28;20050;-77
2021/12/22 11:11:14;;;;;;;20.98;13.57;;;;;;;-0.19;68.36;97373.53;5013171;28;20587;-78
2021/12/22 11:13:42;;;;;;;20.85;13.32;;;;;;;-0.14;69.38;97386.91;5014126;28;20050;-78
2021/12/22 11:16:15;;;;;;;17.77;11.95;;;;;;;-0.10;67.76;97398.63;5013436;28;20046;-79
2021/12/22 11:18:42;;;;;;;;;;;;;;;-0.04;67.47;97384.59;5015450;28;20133;-79
2021/12/22 11:21:13;;;;;;;20.05;12.43;;;;;;;0.00;68.13;97373.22;5014916;28;20004;-82
2021/12/22 11:23:41;;;;;;;19.00;12.00;;;;;;;0.09;67.62;97374.34;5014065;28;20054;-80
2021/12/22 11:26:09;;;;;;;18.15;10.77;;;;;;;0.11;66.75;97375.09;5015290;28;20075;-78
2021/12/22 11:28:37;;;;;;;19.48;12.30;;;;;;;0.09;66.70;97371.78;5015618;28;20054;-80
2021/12/22 11:31:09;;;;;;;16.95;11.48;;;;;;;0.11;66.04;97365.66;5014533;28;20423;-79
2021/12/22 11:33:42;;;;;;;20.25;12.63;;;;;;;0.11;66.27;97359.69;5007751;28;20100;-76
2021/12/22 11:36:10;;;;;;;18.45;11.40;;;;;;;0.11;66.39;97363.09;5018502;28;20050;-76
2021/12/22 11:38:39;;;;;;;18.90;11.50;;;;;;;0.11;66.97;97355.41;5013328;28;20049;-76